Time;durP1;ratioP1;P1;durP2;ratioP2;P2;SDS_P1;SDS_P2;PMS_P1;PMS_P2;Temp;Humidity;BMP_temperature;BMP_pressure;BME280_temperature;BME280_humidity;BME280_pressure;Samples;Min_cycle;Max_cycle;Signal;HPM_P1;HPM_P2
2021/11/29 00:00:53;;;;;;;2.15;1.67;;;16.70;58.20;;;;;;5053362;28;20174;-60
2021/11/29 00:03:19;;;;;;;1.70;1.60;;;16.60;58.20;;;;;;5053077;28;20577;-60
2021/11/29 00:05:45;;;;;;;1.70;1.60;;;16.60;58.20;;;;;;5053549;28;20274;-60
2021/11/29 00:08:11;;;;;;;1.92;1.73;;;16.60;58.20;;;;;;5053551;28;20261;-60
2021/11/29 00:10:37;;;;;;;2.30;2.08;;;16.60;58.20;;;;;;5052092;28;20182;-61
2021/11/29 00:13:02;;;;;;;1.70;1.60;;;16.60;58.20;;;;;;5053697;28;20692;-61
2021/11/29 00:15:28;;;;;;;2.47;1.90;;;16.60;58.20;;;;;;5052903;28;20209;-61
2021/11/29 00:17:54;;;;;;;2.17;1.98;;;16.50;58.10;;;;;;5052830;28;20214;-60
2021/11/29 00:20:19;;;;;;;2.28;2.08;;;16.50;58.20;;;;;;5052777;28;20626;-60
2021/11/29 00:22:45;;;;;;;2.25;1.83;;;16.50;58.10;;;;;;5052414;28;20177;-61
2021/11/29 00:25:10;;;;;;;2.17;1.77;;;16.50;58.10;;;;;;5053098;28;20258;-60
2021/11/29 00:27:37;;;;;;;2.15;1.80;;;16.50;58.10;;;;;;5052867;28;20586;-60
2021/11/29 00:30:05;;;;;;;2.35;1.75;;;16.50;58.10;;;;;;5052272;28;20221;-60
2021/11/29 00:32:31;;;;;;;2.50;1.63;;;16.40;58.00;;;;;;5052805;28;20593;-60
2021/11/29 00:34:56;;;;;;;2.03;1.83;;;16.40;58.00;;;;;;5052902;28;20172;-59
2021/11/29 00:37:23;;;;;;;1.98;1.60;;;16.40;58.00;;;;;;5052248;28;20249;-59
2021/11/29 00:39:49;;;;;;;1.95;1.77;;;16.40;58.00;;;;;;5052751;28;20537;-60
2021/11/29 00:42:14;;;;;;;2.05;1.90;;;16.40;58.00;;;;;;5052949;28;20617;-60
2021/11/29 00:44:40;;;;;;;2.22;1.67;;;16.40;58.00;;;;;;5052132;28;20178;-61
2021/11/29 00:47:05;;;;;;;1.60;1.50;;;16.40;58.00;;;;;;5052832;28;20182;-60
2021/11/29 00:49:31;;;;;;;2.83;1.85;;;16.30;58.00;;;;;;5052376;28;20689;-60
2021/11/29 00:51:56;;;;;;;1.88;1.73;;;16.30;57.90;;;;;;5052122;28;20695;-61
2021/11/29 00:54:22;;;;;;;2.13;1.90;;;16.30;58.00;;;;;;5052746;28;20201;-62
2021/11/29 00:56:47;;;;;;;1.90;1.80;;;16.30;58.00;;;;;;5052587;28;20324;-61
2021/11/29 00:59:13;;;;;;;1.73;1.63;;;16.30;57.90;;;;;;5052072;28;20519;-59
2021/11/29 01:01:39;;;;;;;1.75;1.65;;;16.30;57.90;;;;;;5052182;28;20201;-60
2021/11/29 01:04:04;;;;;;;1.98;1.80;;;16.30;57.90;;;;;;5052728;28;20183;-59
2021/11/29 01:06:30;;;;;;;2.13;1.70;;;16.30;57.90;;;;;;5051512;28;20167;-60
2021/11/29 01:08:58;;;;;;;1.27;1.20;;;16.30;57.90;;;;;;5052367;28;20179;-59
2021/11/29 01:11:27;;;;;;;2.55;1.60;;;16.20;57.80;;;;;;5052662;28;20186;-61
2021/11/29 01:13:52;;;;;;;2.03;1.73;;;16.30;57.90;;;;;;5051430;28;20640;-61
2021/11/29 01:16:18;;;;;;;2.28;1.67;;;16.20;57.90;;;;;;5052530;28;20175;-61
2021/11/29 01:18:43;;;;;;;1.67;1.58;;;16.20;57.90;;;;;;5052245;28;20206;-63
2021/11/29 01:21:09;;;;;;;1.50;1.33;;;16.20;57.80;;;;;;5052028;28;20186;-62
2021/11/29 01:23:34;;;;;;;3.08;1.85;;;16.20;58.00;;;;;;5052846;28;20179;-61
2021/11/29 01:26:06;;;;;;;1.77;1.67;;;16.20;57.90;;;;;;5051807;28;20638;-60
2021/11/29 01:28:31;;;;;;;1.95;1.33;;;16.20;57.90;;;;;;5051270;28;20183;-60
2021/11/29 01:30:57;;;;;;;1.58;1.45;;;16.20;57.90;;;;;;5052243;28;20309;-59
2021/11/29 01:33:22;;;;;;;1.67;1.58;;;16.10;57.90;;;;;;5051663;28;20197;-60
2021/11/29 01:35:48;;;;;;;1.58;1.48;;;16.10;57.90;;;;;;5051907;28;20266;-60
2021/11/29 01:38:14;;;;;;;1.88;1.63;;;16.10;57.90;;;;;;5051981;28;20210;-60
2021/11/29 01:40:39;;;;;;;1.63;1.52;;;16.10;57.90;;;;;;5051345;28;20171;-60
2021/11/29 01:43:13;;;;;;;1.80;1.70;;;16.10;58.00;;;;;;5052326;28;20186;-59
2021/11/29 01:45:42;;;;;;;1.50;1.40;;;16.10;57.90;;;;;;5051918;28;20179;-60
2021/11/29 01:48:07;;;;;;;1.60;1.35;;;16.10;57.90;;;;;;5051177;28;20246;-59
2021/11/29 01:50:33;;;;;;;1.65;1.40;;;16.10;58.00;;;;;;5051526;28;20333;-60
2021/11/29 01:52:59;;;;;;;2.78;1.58;;;16.10;57.90;;;;;;5052092;28;20171;-60
2021/11/29 01:55:24;;;;;;;1.35;1.25;;;16.10;57.90;;;;;;5051536;28;20179;-61
2021/11/29 01:57:50;;;;;;;1.70;1.60;;;16.00;57.90;;;;;;5051582;28;20215;-62
2021/11/29 02:00:20;;;;;;;1.83;1.40;;;16.00;57.80;;;;;;5052062;28;20174;-61
2021/11/29 02:02:50;;;;;;;1.63;1.33;;;16.10;57.90;;;;;;5050903;28;20210;-60
2021/11/29 02:05:15;;;;;;;1.60;1.50;;;16.10;58.00;;;;;;5051736;28;20182;-60
2021/11/29 02:07:41;;;;;;;1.50;1.40;;;16.00;57.80;;;;;;5051577;28;20179;-60
2021/11/29 02:10:08;;;;;;;2.30;1.55;;;16.00;57.90;;;;;;5051264;28;20219;-60
2021/11/29 02:12:33;;;;;;;1.48;1.30;;;16.00;57.90;;;;;;5051751;28;20198;-62
2021/11/29 02:14:59;;;;;;;1.38;1.15;;;16.00;57.90;;;;;;5051704;28;20175;-62
2021/11/29 02:17:24;;;;;;;1.90;1.30;;;15.90;57.80;;;;;;5049858;28;20214;-61
2021/11/29 02:19:49;;;;;;;1.83;1.52;;;15.90;57.80;;;;;;5051197;28;20216;-61
2021/11/29 02:22:15;;;;;;;1.63;1.40;;;15.90;57.80;;;;;;5050527;28;20655;-61
2021/11/29 02:24:41;;;;;;;2.35;1.60;;;15.90;57.90;;;;;;5050759;28;20171;-61
2021/11/29 02:27:06;;;;;;;1.55;1.40;;;15.90;57.90;;;;;;5051762;28;20175;-61
2021/11/29 02:29:32;;;;;;;2.13;1.45;;;15.90;57.90;;;;;;5050725;28;20651;-60
2021/11/29 02:31:58;;;;;;;1.92;1.27;;;15.90;57.90;;;;;;5051548;28;20171;-60
2021/11/29 02:34:25;;;;;;;1.13;1.08;;;15.90;57.80;;;;;;5051417;28;20171;-60
2021/11/29 02:36:55;;;;;;;1.38;1.27;;;15.90;57.90;;;;;;5050495;28;20179;-61
2021/11/29 02:39:21;;;;;;;1.67;1.17;;;15.90;57.80;;;;;;5054486;28;20179;-61
2021/11/29 02:41:47;;;;;;;1.30;1.20;;;15.90;57.80;;;;;;5055187;28;20169;-61
2021/11/29 02:44:13;;;;;;;1.27;1.15;;;15.90;57.80;;;;;;5054831;28;20175;-60
2021/11/29 02:46:38;;;;;;;2.40;1.30;;;15.90;57.80;;;;;;5054523;28;20190;-61
2021/11/29 02:49:05;;;;;;;1.55;1.45;;;15.80;57.70;;;;;;5055198;28;20563;-60
2021/11/29 02:51:36;;;;;;;1.60;1.33;;;15.80;57.80;;;;;;5054485;28;20207;-61
2021/11/29 02:54:06;;;;;;;2.88;1.50;;;15.80;57.80;;;;;;5055425;28;20179;-61
2021/11/29 02:56:32;;;;;;;2.08;1.67;;;15.80;57.80;;;;;;5055042;28;20204;-62
2021/11/29 02:58:57;;;;;;;1.52;1.15;;;15.80;57.80;;;;;;5054424;28;20214;-61
2021/11/29 03:01:23;;;;;;;1.00;0.90;;;15.80;57.80;;;;;;5055126;28;20202;-61
2021/11/29 03:03:50;;;;;;;1.83;1.20;;;15.80;57.80;;;;;;5055055;28;20268;-60
2021/11/29 03:06:16;;;;;;;1.15;1.15;;;15.80;57.80;;;;;;5054261;28;20182;-60
2021/11/29 03:08:42;;;;;;;1.27;1.17;;;15.70;57.70;;;;;;5054865;28;20183;-60
2021/11/29 03:11:07;;;;;;;0.90;0.90;;;15.80;57.80;;;;;;5054968;28;20178;-61
2021/11/29 03:13:33;;;;;;;1.88;1.15;;;15.80;57.80;;;;;;5053636;28;20245;-61
2021/11/29 03:15:58;;;;;;;1.30;1.00;;;15.80;57.80;;;;;;5054676;28;20175;-61
2021/11/29 03:18:29;;;;;;;1.23;1.10;;;15.70;57.70;;;;;;5054203;28;20542;-61
2021/11/29 03:20:54;;;;;;;1.17;1.08;;;15.70;57.80;;;;;;5053971;28;20261;-61
2021/11/29 03:23:20;;;;;;;1.05;1.05;;;15.70;57.70;;;;;;5054561;28;20530;-60
2021/11/29 03:25:45;;;;;;;1.30;1.00;;;15.70;57.70;;;;;;5053293;28;20668;-61
2021/11/29 03:28:13;;;;;;;1.20;1.10;;;15.70;57.80;;;;;;5054596;28;20261;-60
2021/11/29 03:30:39;;;;;;;1.00;1.00;;;15.70;57.70;;;;;;5054004;28;20179;-60
2021/11/29 03:33:04;;;;;;;1.73;0.93;;;15.70;57.80;;;;;;5053675;28;20182;-60
2021/11/29 03:35:30;;;;;;;1.10;1.05;;;15.60;57.70;;;;;;5054319;28;20171;-60
2021/11/29 03:37:55;;;;;;;1.42;1.33;;;15.60;57.70;;;;;;5054161;28;20207;-60
2021/11/29 03:40:21;;;;;;;1.20;1.10;;;15.70;57.80;;;;;;5053542;28;20167;-60
2021/11/29 03:42:46;;;;;;;1.25;0.90;;;15.60;57.70;;;;;;5053786;28;20634;-61
2021/11/29 03:45:12;;;;;;;1.10;1.00;;;15.60;57.70;;;;;;5054055;28;20167;-60
2021/11/29 03:47:37;;;;;;;1.30;1.10;;;15.60;57.70;;;;;;5053092;28;20182;-60
2021/11/29 03:50:03;;;;;;;2.17;1.02;;;15.60;57.70;;;;;;5052709;28;20230;-60
2021/11/29 03:52:30;;;;;;;1.02;1.02;;;15.60;57.70;;;;;;5053766;28;20206;-61
2021/11/29 03:54:55;;;;;;;1.63;1.23;;;15.60;57.70;;;;;;5053506;28;20174;-61
2021/11/29 03:57:21;;;;;;;1.10;1.00;;;15.60;57.70;;;;;;5053989;28;20210;-62
2021/11/29 03:59:46;;;;;;;1.08;1.00;;;15.60;57.70;;;;;;5053816;28;20261;-61
2021/11/29 04:02:12;;;;;;;1.80;1.00;;;15.60;57.70;;;;;;5053622;28;20178;-60
2021/11/29 04:04:38;;;;;;;1.13;0.90;;;15.50;57.70;;;;;;5053849;28;20193;-60
2021/11/29 04:07:04;;;;;;;0.93;0.93;;;15.60;57.70;;;;;;5053975;28;20167;-60
2021/11/29 04:09:29;;;;;;;1.25;0.93;;;15.60;57.80;;;;;;5053051;28;20605;-60
2021/11/29 04:11:56;;;;;;;1.10;0.88;;;15.50;58.30;;;;;;5053873;28;20220;-61
2021/11/29 04:14:21;;;;;;;1.33;0.80;;;15.50;57.70;;;;;;5053710;28;20281;-61
2021/11/29 04:16:47;;;;;;;1.05;0.80;;;15.50;57.70;;;;;;5052853;28;20294;-61
2021/11/29 04:19:13;;;;;;;1.08;1.00;;;15.50;57.70;;;;;;5053528;28;20321;-59
2021/11/29 04:21:38;;;;;;;0.80;0.80;;;15.50;57.70;;;;;;5053294;28;20179;-59
2021/11/29 04:24:04;;;;;;;1.10;1.00;;;15.50;57.70;;;;;;5052769;28;20190;-59
2021/11/29 04:26:30;;;;;;;1.20;0.90;;;15.50;57.70;;;;;;5053280;28;20171;-60
2021/11/29 04:28:56;;;;;;;1.23;1.00;;;15.50;57.70;;;;;;5052894;28;20179;-59
2021/11/29 04:31:22;;;;;;;0.95;0.95;;;15.50;57.80;;;;;;5053474;28;20163;-59
2021/11/29 04:33:47;;;;;;;1.25;0.90;;;15.50;57.80;;;;;;5053225;28;20190;-60
2021/11/29 04:36:13;;;;;;;0.73;0.73;;;15.50;57.70;;;;;;5052792;28;20175;-60
2021/11/29 04:38:38;;;;;;;0.75;0.75;;;15.40;57.60;;;;;;5053017;28;20218;-60
2021/11/29 04:41:04;;;;;;;1.45;1.00;;;15.40;57.70;;;;;;5053259;28;20172;-60
2021/11/29 04:43:29;;;;;;;1.08;0.98;;;15.40;57.70;;;;;;5052051;28;20192;-59
2021/11/29 04:45:55;;;;;;;0.75;0.75;;;15.40;57.60;;;;;;5053367;28;20258;-60
2021/11/29 04:48:20;;;;;;;1.45;0.90;;;15.40;57.60;;;;;;5052695;28;20223;-60
2021/11/29 04:50:46;;;;;;;0.70;0.70;;;15.40;57.70;;;;;;5052143;28;20186;-61
2021/11/29 04:53:12;;;;;;;1.10;0.90;;;15.40;57.60;;;;;;5052859;28;20183;-61
2021/11/29 04:55:37;;;;;;;1.13;0.70;;;15.40;57.60;;;;;;5052763;28;20198;-60
2021/11/29 04:58:03;;;;;;;1.35;0.88;;;15.40;57.60;;;;;;5052129;28;20235;-60
2021/11/29 05:00:28;;;;;;;0.85;0.85;;;15.40;57.60;;;;;;5052981;28;20171;-60
2021/11/29 05:02:54;;;;;;;1.10;0.85;;;15.40;57.60;;;;;;5052822;28;20199;-59
2021/11/29 05:05:19;;;;;;;2.20;1.10;;;15.30;57.60;;;;;;5052201;28;20191;-60
2021/11/29 05:07:45;;;;;;;1.20;1.10;;;15.30;57.60;;;;;;5052654;28;20258;-60
2021/11/29 05:10:16;;;;;;;0.80;0.80;;;15.30;57.60;;;;;;5052760;28;20603;-60
2021/11/29 05:12:42;;;;;;;0.68;0.68;;;15.30;57.60;;;;;;5051711;28;20202;-62
2021/11/29 05:15:08;;;;;;;1.05;0.70;;;15.30;57.70;;;;;;5052703;28;20198;-61
2021/11/29 05:17:33;;;;;;;0.82;0.80;;;15.30;57.60;;;;;;5052002;28;20203;-62
2021/11/29 05:19:59;;;;;;;0.73;0.73;;;15.30;57.60;;;;;;5051665;28;20174;-60
2021/11/29 05:22:24;;;;;;;0.80;0.80;;;15.30;57.70;;;;;;5052429;28;20288;-61
2021/11/29 05:24:50;;;;;;;0.80;0.80;;;15.30;57.70;;;;;;5051998;28;20186;-60
2021/11/29 05:27:15;;;;;;;0.80;0.80;;;15.30;57.70;;;;;;5051474;28;20474;-59
2021/11/29 05:29:41;;;;;;;0.80;0.80;;;15.30;57.60;;;;;;5052146;28;20179;-60
2021/11/29 05:32:07;;;;;;;1.48;1.10;;;15.20;57.60;;;;;;5052177;28;20179;-59
2021/11/29 05:34:32;;;;;;;0.95;0.88;;;15.20;57.60;;;;;;5051213;28;20179;-59
2021/11/29 05:36:58;;;;;;;0.70;0.70;;;15.20;57.60;;;;;;5052046;28;20902;-60
2021/11/29 05:39:23;;;;;;;1.08;0.80;;;15.20;57.60;;;;;;5051360;28;20601;-60
2021/11/29 05:41:49;;;;;;;0.68;0.68;;;15.20;57.60;;;;;;5051631;28;20215;-59
2021/11/29 05:44:15;;;;;;;0.98;0.70;;;15.20;57.70;;;;;;5052324;28;20178;-59
2021/11/29 05:46:41;;;;;;;0.93;0.93;;;15.20;57.60;;;;;;5051105;28;20167;-59
2021/11/29 05:49:06;;;;;;;0.88;0.70;;;15.20;57.60;;;;;;5051785;28;20589;-59
2021/11/29 05:51:32;;;;;;;0.80;0.80;;;15.20;57.70;;;;;;5051600;28;20225;-60
2021/11/29 05:53:57;;;;;;;0.60;0.60;;;15.20;57.60;;;;;;5051146;28;20596;-61
2021/11/29 05:56:23;;;;;;;1.42;0.95;;;15.20;57.60;;;;;;5051714;28;20254;-60
2021/11/29 05:58:49;;;;;;;0.80;0.80;;;15.10;57.60;;;;;;5051671;28;20229;-61
2021/11/29 06:01:14;;;;;;;1.25;1.15;;;15.20;57.70;;;;;;5051228;28;20175;-60
2021/11/29 06:03:40;;;;;;;0.70;0.70;;;15.20;57.70;;;;;;5051788;28;20183;-60
2021/11/29 06:06:06;;;;;;;0.80;0.70;;;15.20;57.60;;;;;;5051888;28;20174;-58
2021/11/29 06:08:31;;;;;;;0.80;0.80;;;15.20;57.50;;;;;;5050770;28;20605;-60
2021/11/29 06:10:57;;;;;;;0.63;0.63;;;15.30;57.70;;;;;;5051908;28;20214;-59
2021/11/29 06:13:22;;;;;;;1.02;0.77;;;15.40;57.90;;;;;;5051432;28;20179;-60
2021/11/29 06:15:48;;;;;;;0.70;0.70;;;15.50;57.80;;;;;;5051236;28;20263;-60
2021/11/29 06:18:13;;;;;;;0.98;0.70;;;15.70;57.50;;;;;;5051564;28;20284;-60
2021/11/29 06:20:39;;;;;;;0.60;0.57;;;15.80;57.20;;;;;;5051358;28;20179;-60
2021/11/29 06:23:05;;;;;;;0.60;0.60;;;16.00;57.00;;;;;;5050938;28;20179;-60
2021/11/29 06:25:31;;;;;;;0.50;0.50;;;16.10;56.80;;;;;;5051134;28;20221;-60
2021/11/29 06:27:56;;;;;;;0.60;0.47;;;16.30;56.50;;;;;;5051437;28;20544;-60
2021/11/29 06:30:22;;;;;;;0.75;0.75;;;16.50;56.20;;;;;;5051006;28;20178;-59
2021/11/29 06:32:48;;;;;;;0.70;0.68;;;16.60;55.90;;;;;;5051255;28;20270;-60
2021/11/29 06:35:13;;;;;;;0.63;0.60;;;16.70;55.80;;;;;;5051507;28;20175;-59
2021/11/29 06:37:39;;;;;;;1.20;0.50;;;16.80;55.70;;;;;;5050559;28;20209;-59
2021/11/29 06:40:05;;;;;;;0.82;0.80;;;16.80;55.50;;;;;;5050006;28;20178;-59
2021/11/29 06:42:52;;;;;;;0.63;0.57;;;16.90;55.50;;;;;;5050987;28;20179;-60
2021/11/29 06:45:17;;;;;;;0.88;0.70;;;17.00;55.20;;;;;;5051391;28;20187;-59
2021/11/29 06:47:43;;;;;;;0.50;0.50;;;17.10;55.00;;;;;;5050989;28;20657;-60
2021/11/29 06:50:11;;;;;;;0.57;0.57;;;17.20;54.90;;;;;;5050480;28;20223;-60
2021/11/29 06:52:39;;;;;;;0.60;0.60;;;17.20;54.90;;;;;;5050786;28;20715;-61
2021/11/29 06:55:05;;;;;;;0.70;0.70;;;17.10;54.80;;;;;;5051804;28;20171;-61
2021/11/29 06:57:31;;;;;;;0.60;0.52;;;17.10;55.00;;;;;;5050754;28;20207;-59
2021/11/29 06:59:56;;;;;;;0.70;0.70;;;17.00;55.10;;;;;;5051016;28;20194;-60
2021/11/29 07:02:27;;;;;;;0.93;0.88;;;16.90;55.30;;;;;;5051254;28;20177;-60
2021/11/29 07:04:53;;;;;;;0.60;0.60;;;16.90;55.40;;;;;;5050303;28;20175;-59
2021/11/29 07:07:19;;;;;;;0.75;0.63;;;16.90;55.50;;;;;;5051233;28;20206;-59
2021/11/29 07:09:44;;;;;;;0.60;0.60;;;16.90;55.40;;;;;;5051037;28;20190;-60
2021/11/29 07:12:10;;;;;;;0.57;0.50;;;16.90;55.40;;;;;;5050537;28;20703;-60
2021/11/29 07:14:35;;;;;;;0.50;0.50;;;17.00;55.50;;;;;;5050609;28;20175;-61
2021/11/29 07:17:01;;;;;;;0.63;0.63;;;17.00;55.40;;;;;;5051129;28;20232;-61
2021/11/29 07:19:26;;;;;;;0.60;0.60;;;17.10;55.50;;;;;;5048939;28;20236;-60
2021/11/29 07:21:53;;;;;;;1.20;0.70;;;17.20;55.20;;;;;;5050707;28;20171;-60
2021/11/29 07:24:18;;;;;;;0.65;0.65;;;17.20;55.10;;;;;;5051091;28;20210;-60
2021/11/29 07:26:45;;;;;;;1.85;0.73;;;17.20;55.20;;;;;;5053267;28;20217;-60
2021/11/29 07:29:12;;;;;;;0.75;0.70;;;17.20;55.20;;;;;;5054704;28;20175;-59
2021/11/29 07:31:39;;;;;;;1.05;0.68;;;17.20;55.10;;;;;;5054337;28;20221;-60
2021/11/29 07:34:04;;;;;;;1.38;0.95;;;17.40;55.00;;;;;;5053779;28;20249;-60
2021/11/29 07:36:30;;;;;;;0.50;0.50;;;17.60;54.60;;;;;;5054219;28;20571;-61
2021/11/29 07:38:56;;;;;;;1.27;0.70;;;17.80;54.10;;;;;;5053951;28;20226;-60
2021/11/29 07:41:21;;;;;;;0.63;0.63;;;18.10;53.80;;;;;;5054404;28;20167;-61
2021/11/29 07:43:47;;;;;;;0.77;0.70;;;18.20;53.50;;;;;;5054181;28;20699;-61
2021/11/29 07:46:12;;;;;;;1.50;0.70;;;18.30;53.30;;;;;;5053549;28;20190;-61
2021/11/29 07:48:38;;;;;;;1.38;0.50;;;18.40;53.20;;;;;;5053796;28;20246;-67
2021/11/29 07:51:03;;;;;;;2.10;0.60;;;18.50;53.20;;;;;;5053999;28;20228;-67
2021/11/29 07:53:29;;;;;;;2.72;0.80;;;18.60;53.00;;;;;;5053341;28;20278;-66
2021/11/29 07:55:54;;;;;;;1.60;0.60;;;18.60;52.80;;;;;;5054003;28;20236;-62
2021/11/29 07:58:21;;;;;;;1.35;0.57;;;18.60;52.70;;;;;;5054246;28;20221;-62
2021/11/29 08:00:47;;;;;;;3.33;0.70;;;18.60;52.60;;;;;;5052999;28;20183;-61
2021/11/29 08:03:12;;;;;;;2.65;1.08;;;18.60;52.70;;;;;;5053818;28;20179;-66
2021/11/29 08:05:38;;;;;;;3.05;0.77;;;18.50;52.90;;;;;;5053457;28;20172;-66
2021/11/29 08:08:04;;;;;;;1.63;0.73;;;18.50;53.20;;;;;;5053031;28;20548;-65
2021/11/29 08:10:30;;;;;;;2.13;0.70;;;18.40;53.30;;;;;;5053615;28;20237;-65
2021/11/29 08:12:58;;;;;;;1.27;0.73;;;18.40;53.30;;;;;;5053731;28;20549;-66
2021/11/29 08:15:24;;;;;;;1.75;0.68;;;18.40;53.40;;;;;;5053100;28;20175;-64
2021/11/29 08:17:49;;;;;;;0.75;0.60;;;18.40;53.20;;;;;;5053280;28;20207;-64
2021/11/29 08:20:15;;;;;;;2.45;0.90;;;18.40;53.10;;;;;;5053597;28;20656;-65
2021/11/29 08:22:41;;;;;;;1.85;0.70;;;18.40;53.00;;;;;;5052843;28;20692;-64
2021/11/29 08:25:06;;;;;;;1.52;0.80;;;18.30;52.80;;;;;;5053756;28;20167;-64
2021/11/29 08:27:33;;;;;;;3.15;0.80;;;18.30;52.80;;;;;;5053370;28;20544;-64
2021/11/29 08:30:00;;;;;;;4.35;1.00;;;18.30;52.80;;;;;;5052756;28;20183;-64
2021/11/29 08:32:25;;;;;;;0.90;0.57;;;18.30;52.70;;;;;;5053319;28;20676;-65
2021/11/29 08:34:51;;;;;;;1.98;0.68;;;18.30;52.70;;;;;;5053134;28;20179;-65
2021/11/29 08:37:16;;;;;;;1.90;1.10;;;18.30;52.50;;;;;;5052299;28;20190;-66
2021/11/29 08:39:42;;;;;;;5.13;0.90;;;18.40;52.40;;;;;;5053041;28;20186;-65
2021/11/29 08:42:07;;;;;;;0.93;0.75;;;18.40;52.30;;;;;;5052822;28;20171;-65
2021/11/29 08:44:33;;;;;;;2.40;0.70;;;18.50;52.20;;;;;;5052871;28;20171;-64
2021/11/29 08:46:59;;;;;;;1.85;0.90;;;18.60;52.00;;;;;;5053101;28;20179;-64
2021/11/29 08:49:25;;;;;;;1.65;0.63;;;18.70;51.90;;;;;;5052061;28;20698;-64
2021/11/29 08:51:50;;;;;;;2.67;0.80;;;18.70;51.80;;;;;;5052913;28;20547;-64
2021/11/29 08:54:16;;;;;;;2.83;0.70;;;18.80;51.60;;;;;;5053066;28;20216;-64
2021/11/29 08:56:42;;;;;;;2.42;0.90;;;18.90;51.60;;;;;;5052089;28;20179;-64
2021/11/29 08:59:08;;;;;;;1.38;0.77;;;19.00;51.30;;;;;;5052802;28;20219;-65
2021/11/29 09:01:34;;;;;;;1.95;0.85;;;19.00;51.30;;;;;;5052552;28;20179;-64
2021/11/29 09:03:59;;;;;;;1.67;0.57;;;19.10;51.30;;;;;;5052104;28;20186;-65
2021/11/29 09:06:25;;;;;;;1.23;0.80;;;19.10;51.20;;;;;;5052912;28;20346;-64
2021/11/29 09:08:50;;;;;;;1.60;0.93;;;19.10;51.10;;;;;;5052549;28;20225;-63
2021/11/29 09:11:16;;;;;;;1.83;1.25;;;19.20;51.10;;;;;;5052044;28;20244;-63
2021/11/29 09:13:42;;;;;;;1.08;0.57;;;19.20;51.10;;;;;;5052297;28;20703;-63
2021/11/29 09:16:07;;;;;;;2.40;1.10;;;19.20;51.10;;;;;;5052594;28;20199;-64
2021/11/29 09:18:33;;;;;;;1.45;0.98;;;19.20;51.00;;;;;;5051483;28;20230;-63
2021/11/29 09:20:59;;;;;;;2.22;0.90;;;19.20;51.00;;;;;;5052598;28;20482;-64
2021/11/29 09:23:25;;;;;;;1.70;0.60;;;19.20;51.10;;;;;;5052684;28;20221;-63
2021/11/29 09:25:51;;;;;;;1.77;0.88;;;19.10;51.10;;;;;;5051470;28;20175;-63
2021/11/29 09:28:16;;;;;;;0.82;0.80;;;19.00;51.50;;;;;;5052332;28;20665;-64
2021/11/29 09:30:43;;;;;;;2.25;0.95;;;18.90;51.60;;;;;;5052086;28;20179;-63
2021/11/29 09:33:08;;;;;;;1.98;0.90;;;18.70;51.90;;;;;;5051476;28;20183;-64
2021/11/29 09:35:35;;;;;;;1.25;0.80;;;18.60;52.10;;;;;;5052107;28;20175;-64
2021/11/29 09:38:03;;;;;;;0.95;0.70;;;18.50;52.30;;;;;;5052070;28;20682;-65
2021/11/29 09:40:34;;;;;;;0.95;0.68;;;18.50;52.40;;;;;;5051154;28;20262;-66
2021/11/29 09:43:09;;;;;;;2.50;0.80;;;18.50;52.40;;;;;;5052296;28;20179;-66
2021/11/29 09:45:34;;;;;;;1.55;0.70;;;18.50;52.30;;;;;;5050902;28;20178;-65
2021/11/29 09:48:02;;;;;;;1.30;0.98;;;18.50;52.30;;;;;;5051245;28;20171;-64
2021/11/29 09:50:28;;;;;;;1.70;0.80;;;18.70;52.40;;;;;;5052243;28;20175;-65
2021/11/29 09:52:54;;;;;;;1.40;0.88;;;18.50;52.40;;;;;;5051436;28;20175;-65
2021/11/29 09:55:22;;;;;;;0.70;0.50;;;18.50;52.40;;;;;;5051776;28;20182;-66
2021/11/29 09:57:47;;;;;;;2.58;0.80;;;18.40;52.30;;;;;;5051367;28;20245;-65
2021/11/29 10:00:17;;;;;;;1.58;0.68;;;18.50;52.40;;;;;;5051068;28;20202;-66
2021/11/29 10:02:42;;;;;;;2.05;0.93;;;18.40;52.30;;;;;;5051725;28;20182;-65
2021/11/29 10:05:08;;;;;;;0.95;0.57;;;18.40;52.30;;;;;;5051949;28;20171;-65
2021/11/29 10:07:39;;;;;;;2.17;0.60;;;18.40;52.30;;;;;;5050889;28;20549;-64
2021/11/29 10:10:12;;;;;;;1.25;0.80;;;18.40;52.30;;;;;;5051837;28;20185;-65
2021/11/29 10:12:37;;;;;;;0.68;0.63;;;18.40;52.40;;;;;;5051378;28;20190;-65
2021/11/29 10:15:11;;;;;;;0.85;0.73;;;18.40;52.30;;;;;;5051248;28;20524;-65
2021/11/29 10:17:37;;;;;;;0.60;0.60;;;18.40;52.40;;;;;;5051380;28;20211;-65
2021/11/29 10:20:03;;;;;;;1.23;0.80;;;18.40;52.30;;;;;;5051649;28;20258;-65
2021/11/29 10:22:29;;;;;;;1.40;0.63;;;18.40;52.30;;;;;;5050751;28;20547;-64
2021/11/29 10:24:54;;;;;;;1.13;0.75;;;18.40;52.30;;;;;;5051569;28;20675;-64
2021/11/29 10:27:37;;;;;;;1.65;0.70;;;18.50;52.30;;;;;;5051387;28;20179;-63
2021/11/29 10:30:04;;;;;;;0.98;0.65;;;18.50;52.30;;;;;;5050512;28;20316;-64
2021/11/29 10:32:33;;;;;;;1.10;0.77;;;18.40;52.20;;;;;;5051465;28;20214;-65
2021/11/29 10:34:59;;;;;;;0.93;0.50;;;18.50;52.30;;;;;;5050676;28;20175;-65
2021/11/29 10:37:29;;;;;;;0.95;0.70;;;18.50;52.30;;;;;;5051308;28;20207;-65
2021/11/29 10:39:55;;;;;;;1.77;0.50;;;18.50;52.20;;;;;;5051372;28;20197;-66
2021/11/29 10:42:24;;;;;;;1.63;0.98;;;18.50;52.20;;;;;;5050863;28;20175;-65
2021/11/29 10:44:53;;;;;;;1.13;0.70;;;18.50;52.20;;;;;;5051286;28;20183;-65
2021/11/29 10:47:19;;;;;;;1.25;0.65;;;18.50;52.20;;;;;;5051371;28;20172;-64
2021/11/29 10:49:47;;;;;;;0.90;0.80;;;18.50;52.10;;;;;;5050110;28;20304;-64
2021/11/29 10:52:33;;;;;;;0.73;0.60;;;18.50;52.00;;;;;;5051217;28;20199;-65
2021/11/29 10:54:58;;;;;;;1.50;0.80;;;18.30;50.70;;;;;;5051476;28;20206;-66
2021/11/29 10:57:24;;;;;;;1.00;0.85;;;18.30;50.50;;;;;;5050466;28;20240;-65
2021/11/29 11:00:00;;;;;;;1.27;0.93;;;18.40;50.20;;;;;;5052935;28;20190;-65
2021/11/29 11:02:27;;;;;;;2.00;0.70;;;18.30;50.00;;;;;;5053632;28;20201;-64
2021/11/29 11:05:12;;;;;;;0.98;0.70;;;18.40;50.30;;;;;;5053957;28;20296;-65
2021/11/29 11:07:39;;;;;;;3.35;0.80;;;18.50;50.50;;;;;;5054835;28;20191;-63
2021/11/29 11:10:08;;;;;;;1.23;0.70;;;18.50;50.60;;;;;;5054340;28;20168;-64
2021/11/29 11:12:36;;;;;;;1.05;0.60;;;18.50;50.70;;;;;;5054585;28;20540;-64
2021/11/29 11:15:08;;;;;;;1.08;0.70;;;18.60;50.80;;;;;;5054682;28;20175;-64
2021/11/29 11:17:33;;;;;;;3.25;0.93;;;18.60;50.80;;;;;;5053902;28;20207;-64
2021/11/29 11:20:12;;;;;;;0.85;0.70;;;18.60;50.80;;;;;;5054743;28;20179;-63
2021/11/29 11:22:39;;;;;;;1.88;1.00;;;18.70;51.10;;;;;;5054351;28;20697;-64
2021/11/29 11:25:09;;;;;;;2.08;0.55;;;18.70;51.20;;;;;;5053783;28;20607;-67
2021/11/29 11:27:37;;;;;;;2.03;0.73;;;18.70;51.30;;;;;;5054213;28;20167;-66
2021/11/29 11:30:13;;;;;;;0.90;0.77;;;18.80;51.40;;;;;;5054661;28;20183;-67
2021/11/29 11:32:54;;;;;;;3.28;1.05;;;18.80;51.40;;;;;;5053437;28;20637;-67
2021/11/29 11:35:27;;;;;;;1.48;0.65;;;18.90;51.60;;;;;;5054482;28;20201;-68
2021/11/29 11:37:58;;;;;;;1.60;0.77;;;18.80;51.80;;;;;;5053915;28;20203;-67
2021/11/29 11:40:30;;;;;;;2.05;0.60;;;19.10;52.20;;;;;;5054247;28;20280;-66
2021/11/29 11:42:55;;;;;;;2.25;0.60;;;18.60;52.30;;;;;;5054469;28;20183;-74
2021/11/29 11:45:25;;;;;;;1.60;0.73;;;18.50;52.60;;;;;;5053558;28;20548;-73
2021/11/29 11:47:51;;;;;;;0.70;0.68;;;18.30;52.70;;;;;;5053799;28;20175;-73
2021/11/29 11:50:19;;;;;;;2.45;0.63;;;18.30;52.90;;;;;;5053886;28;20230;-73
2021/11/29 11:52:45;;;;;;;4.00;0.88;;;18.10;53.10;;;;;;5052992;28;20258;-73
2021/11/29 11:55:13;;;;;;;1.25;0.57;;;18.00;53.00;;;;;;5054265;28;20282;-75
2021/11/29 11:57:39;;;;;;;1.20;0.80;;;18.00;53.10;;;;;;5053506;28;20257;-63
2021/11/29 12:00:33;;;;;;;0.75;0.65;;;17.90;53.30;;;;;;5052016;28;20545;-64
2021/11/29 12:03:08;;;;;;;3.70;0.77;;;17.80;53.40;;;;;;5052805;28;20186;-68
2021/11/29 12:05:55;;;;;;;2.67;1.10;;;17.80;54.10;;;;;;5053619;28;20638;-67
2021/11/29 12:08:35;;;;;;;1.73;0.73;;;17.80;53.50;;;;;;5052682;28;20175;-67
2021/11/29 12:11:08;;;;;;;3.35;0.70;;;17.90;54.30;;;;;;5052920;28;20179;-67
2021/11/29 12:13:42;;;;;;;1.55;0.50;;;17.80;53.70;;;;;;5052494;28;20171;-66
2021/11/29 12:16:08;;;;;;;0.90;0.68;;;17.80;53.80;;;;;;5053836;28;20294;-67
2021/11/29 12:18:40;;;;;;;1.85;0.60;;;17.80;53.90;;;;;;5053259;28;20215;-67
2021/11/29 12:21:22;;;;;;;3.90;0.90;;;17.70;54.00;;;;;;5052776;28;20696;-67
2021/11/29 12:24:12;;;;;;;1.45;0.50;;;17.70;54.20;;;;;;5053110;28;20309;-67
2021/11/29 12:26:44;;;;;;;0.98;0.70;;;17.60;54.30;;;;;;5053236;28;20174;-67
2021/11/29 12:29:21;;;;;;;0.98;0.60;;;17.60;54.50;;;;;;5052500;28;20175;-62
2021/11/29 12:31:48;;;;;;;1.25;0.60;;;17.70;54.60;;;;;;5052974;28;20645;-68
2021/11/29 12:34:14;;;;;;;1.30;0.65;;;17.70;54.60;;;;;;5052866;28;20259;-67
2021/11/29 12:37:06;;;;;;;3.00;0.98;;;17.70;54.50;;;;;;5052776;28;20554;-69
2021/11/29 12:39:43;;;;;;;3.05;0.82;;;17.80;54.50;;;;;;5030485;28;20219;-69
2021/11/29 12:42:26;;;;;;;3.55;0.90;;;17.80;54.50;;;;;;5052544;28;20170;-69
2021/11/29 12:45:10;;;;;;;2.28;0.80;;;17.80;54.50;;;;;;5052656;28;20183;-69
2021/11/29 12:47:45;;;;;;;4.28;0.63;;;17.80;54.60;;;;;;5052673;28;20199;-66